Time;durP1;ratioP1;P1;durP2;ratioP2;P2;SDS_P1;SDS_P2;PMS_P1;PMS_P2;Temp;Humidity;BMP_temperature;BMP_pressure;BME280_temperature;BME280_humidity;BME280_pressure;Samples;Min_cycle;Max_cycle;Signal;HPM_P1;HPM_P2
2021/02/03 00:00:29;;;;;;;1.8;1.1;;;;;;;;;;;;;
2021/02/03 00:02:54;;;;;;;4.2;1.4;;;;;;;;;;;;;
2021/02/03 00:05:22;;;;;;;2.3;1;;;;;;;;;;;;;
2021/02/03 00:07:48;;;;;;;2.7;1.3;;;;;;;;;;;;;
2021/02/03 00:10:21;;;;;;;2.3;1.5;;;;;;;;;;;;;
2021/02/03 00:12:49;;;;;;;2.1;1.4;;;;;;;;;;;;;
2021/02/03 00:15:14;;;;;;;1.7;1;;;;;;;;;;;;;
2021/02/03 00:17:42;;;;;;;3.5;1.7;;;;;;;;;;;;;
2021/02/03 00:20:07;;;;;;;2.1;1.3;;;;;;;;;;;;;
2021/02/03 00:22:34;;;;;;;2.2;1.2;;;;;;;;;;;;;
2021/02/03 00:24:59;;;;;;;2.4;1.3;;;;;;;;;;;;;
2021/02/03 00:27:27;;;;;;;1.4;0.9;;;;;;;;;;;;;
2021/02/03 00:29:52;;;;;;;2.3;1.2;;;;;;;;;;;;;
2021/02/03 00:32:17;;;;;;;2.5;1.4;;;;;;;;;;;;;
2021/02/03 00:34:42;;;;;;;1.8;1.2;;;;;;;;;;;;;
2021/02/03 00:37:08;;;;;;;2.7;1.4;;;;;;;;;;;;;
2021/02/03 00:39:33;;;;;;;1.5;0.7;;;;;;;;;;;;;
2021/02/03 00:42:00;;;;;;;2.5;1.2;;;;;;;;;;;;;
2021/02/03 00:44:25;;;;;;;1.1;0.9;;;;;;;;;;;;;
2021/02/03 00:46:52;;;;;;;2.8;0.8;;;;;;;;;;;;;
2021/02/03 00:49:17;;;;;;;1;0.8;;;;;;;;;;;;;
2021/02/03 00:51:42;;;;;;;2.1;0.8;;;;;;;;;;;;;
2021/02/03 00:54:07;;;;;;;3.9;0.8;;;;;;;;;;;;;
2021/02/03 00:56:33;;;;;;;0.6;0.6;;;;;;;;;;;;;
2021/02/03 00:58:58;;;;;;;0.7;0.5;;;;;;;;;;;;;
2021/02/03 01:01:25;;;;;;;0.8;0.5;;;;;;;;;;;;;
2021/02/03 01:03:50;;;;;;;0.3;0.3;;;;;;;;;;;;;
2021/02/03 01:06:16;;;;;;;0.4;0.4;;;;;;;;;;;;;
2021/02/03 01:08:41;;;;;;;0.5;0.3;;;;;;;;;;;;;
2021/02/03 01:11:06;;;;;;;0.8;0.7;;;;;;;;;;;;;
2021/02/03 01:13:33;;;;;;;0.8;0.2;;;;;;;;;;;;;
2021/02/03 01:15:58;;;;;;;0.6;0.4;;;;;;;;;;;;;
2021/02/03 01:18:25;;;;;;;0.4;0.4;;;;;;;;;;;;;
2021/02/03 01:20:57;;;;;;;4.1;1;;;;;;;;;;;;;
2021/02/03 01:23:24;;;;;;;2.4;1.1;;;;;;;;;;;;;
2021/02/03 01:25:49;;;;;;;1.6;1.1;;;;;;;;;;;;;
2021/02/03 01:28:17;;;;;;;1.9;1;;;;;;;;;;;;;
2021/02/03 01:30:44;;;;;;;0.8;0.7;;;;;;;;;;;;;
2021/02/03 01:33:09;;;;;;;3.3;1;;;;;;;;;;;;;
2021/02/03 01:35:34;;;;;;;0.5;0.5;;;;;;;;;;;;;
2021/02/03 01:38:02;;;;;;;1.1;0.8;;;;;;;;;;;;;
2021/02/03 01:40:28;;;;;;;0.8;0.6;;;;;;;;;;;;;
2021/02/03 01:42:53;;;;;;;0.6;0.5;;;;;;;;;;;;;
2021/02/03 01:45:20;;;;;;;2;0.7;;;;;;;;;;;;;
2021/02/03 01:47:47;;;;;;;0.4;0.4;;;;;;;;;;;;;
2021/02/03 01:50:12;;;;;;;0.6;0.5;;;;;;;;;;;;;
2021/02/03 01:52:37;;;;;;;0.5;0.3;;;;;;;;;;;;;
2021/02/03 01:55:02;;;;;;;0.5;0.5;;;;;;;;;;;;;
2021/02/03 01:57:28;;;;;;;0.9;0.7;;;;;;;;;;;;;
2021/02/03 01:59:53;;;;;;;1.2;1;;;;;;;;;;;;;
2021/02/03 02:02:18;;;;;;;1;0.9;;;;;;;;;;;;;
2021/02/03 02:04:43;;;;;;;0.8;0.6;;;;;;;;;;;;;
2021/02/03 02:07:10;;;;;;;0.7;0.6;;;;;;;;;;;;;
2021/02/03 02:09:35;;;;;;;2.1;1;;;;;;;;;;;;;
2021/02/03 02:12:03;;;;;;;0.5;0.5;;;;;;;;;;;;;
2021/02/03 02:14:28;;;;;;;2.5;1;;;;;;;;;;;;;
2021/02/03 02:16:53;;;;;;;1.4;0.8;;;;;;;;;;;;;
2021/02/03 02:19:18;;;;;;;1.5;0.7;;;;;;;;;;;;;
2021/02/03 02:21:44;;;;;;;1;0.7;;;;;;;;;;;;;
2021/02/03 02:24:09;;;;;;;0.6;0.5;;;;;;;;;;;;;
2021/02/03 02:26:34;;;;;;;1.2;0.7;;;;;;;;;;;;;
2021/02/03 02:28:59;;;;;;;1;0.4;;;;;;;;;;;;;
2021/02/03 02:31:24;;;;;;;0.5;0.5;;;;;;;;;;;;;
2021/02/03 02:33:49;;;;;;;0.8;0.6;;;;;;;;;;;;;
2021/02/03 02:36:15;;;;;;;1.2;0.4;;;;;;;;;;;;;
2021/02/03 02:38:40;;;;;;;0.8;0.6;;;;;;;;;;;;;
2021/02/03 02:41:07;;;;;;;0.3;0.3;;;;;;;;;;;;;
2021/02/03 02:43:30;;;;;;;0.7;0.4;;;;;;;;;;;;;
2021/02/03 02:45:55;;;;;;;0.4;0.4;;;;;;;;;;;;;
2021/02/03 02:48:20;;;;;;;0.8;0.6;;;;;;;;;;;;;
2021/02/03 02:50:46;;;;;;;1.1;0.6;;;;;;;;;;;;;
2021/02/03 02:53:11;;;;;;;0.4;0.3;;;;;;;;;;;;;
2021/02/03 02:55:39;;;;;;;0.4;0.4;;;;;;;;;;;;;
2021/02/03 02:58:03;;;;;;;0.5;0.4;;;;;;;;;;;;;
2021/02/03 03:00:32;;;;;;;1.1;0.9;;;;;;;;;;;;;
2021/02/03 03:02:58;;;;;;;0.3;0.3;;;;;;;;;;;;;
2021/02/03 03:05:23;;;;;;;1.3;0.6;;;;;;;;;;;;;
2021/02/03 03:07:48;;;;;;;1;0.5;;;;;;;;;;;;;
2021/02/03 03:10:17;;;;;;;0.6;0.3;;;;;;;;;;;;;
2021/02/03 03:12:42;;;;;;;0.9;0.5;;;;;;;;;;;;;
2021/02/03 03:15:07;;;;;;;0.4;0.4;;;;;;;;;;;;;
2021/02/03 03:17:32;;;;;;;0.3;0.3;;;;;;;;;;;;;
2021/02/03 03:19:57;;;;;;;1;0.4;;;;;;;;;;;;;
2021/02/03 03:22:23;;;;;;;0.7;0.6;;;;;;;;;;;;;
2021/02/03 03:24:48;;;;;;;0.6;0.4;;;;;;;;;;;;;
2021/02/03 03:27:13;;;;;;;0.6;0.4;;;;;;;;;;;;;
2021/02/03 03:29:38;;;;;;;0.8;0.4;;;;;;;;;;;;;
2021/02/03 03:32:03;;;;;;;0.5;0.5;;;;;;;;;;;;;
2021/02/03 03:34:28;;;;;;;0.6;0.5;;;;;;;;;;;;;
2021/02/03 03:36:53;;;;;;;0.6;0.6;;;;;;;;;;;;;
2021/02/03 03:39:19;;;;;;;0.6;0.6;;;;;;;;;;;;;
2021/02/03 03:41:44;;;;;;;3.6;0.8;;;;;;;;;;;;;
2021/02/03 03:44:09;;;;;;;0.8;0.5;;;;;;;;;;;;;
2021/02/03 03:46:34;;;;;;;0.8;0.4;;;;;;;;;;;;;
2021/02/03 03:48:59;;;;;;;0.2;0.2;;;;;;;;;;;;;
2021/02/03 03:51:24;;;;;;;0.3;0.3;;;;;;;;;;;;;
2021/02/03 03:53:49;;;;;;;0.5;0.5;;;;;;;;;;;;;
2021/02/03 03:56:16;;;;;;;1.9;1.1;;;;;;;;;;;;;
2021/02/03 03:58:41;;;;;;;0.7;0.7;;;;;;;;;;;;;
2021/02/03 04:02:30;;;;;;;0.8;0.5;;;;;;;4.9;98.13965;930.065;;;;
2021/02/03 04:04:55;;;;;;;2.3;0.7;;;;;;;5.08;97.45996;930.0076;;;;
2021/02/03 04:09:46;;;;;;;1.1;0.6;;;;;;;5.19;96.37988;929.9194;;;;
2021/02/03 04:12:15;;;;;;;0.6;0.6;;;;;;;5.25;95.94238;929.9475;;;;
2021/02/03 04:14:40;;;;;;;1;0.6;;;;;;;5.37;95.06641;929.9162;;;;
2021/02/03 04:19:21;;;;;;;1.1;0.6;;;;;;;5.42;94.00488;929.7372;;;;
2021/02/03 04:21:46;;;;;;;0.7;0.6;;;;;;;5.33;93.70508;929.7442;;;;
2021/02/03 04:24:11;;;;;;;0.3;0.3;;;;;;;5.31;93.52051;929.6911;;;;
2021/02/03 04:26:43;;;;;;;1.3;0.7;;;;;;;5.27;93.47461;929.7378;;;;
2021/02/03 04:29:08;;;;;;;0.9;0.7;;;;;;;5.27;93.18555;929.7402;;;;
2021/02/03 04:31:34;;;;;;;0.8;0.7;;;;;;;5.27;92.65137;929.6652;;;;
2021/02/03 04:34:00;;;;;;;0.8;0.8;;;;;;;5.24;92.55566;929.6047;;;;
2021/02/03 04:36:25;;;;;;;0.6;0.6;;;;;;;5.2;92.25586;929.6552;;;;
2021/02/03 04:38:50;;;;;;;0.5;0.5;;;;;;;5.2;92.41406;929.6884;;;;
2021/02/03 04:41:15;;;;;;;1.3;1;;;;;;;5.1;92.86621;929.6512;;;;
2021/02/03 04:43:41;;;;;;;2.2;1.2;;;;;;;5.03;93.89844;929.5854;;;;
2021/02/03 04:46:11;;;;;;;2.2;1.4;;;;;;;4.79;96.63965;929.5478;;;;
2021/02/03 04:48:36;;;;;;;2.6;1.8;;;;;;;4.69;96.44727;929.4098;;;;
2021/02/03 04:51:01;;;;;;;3.8;1.6;;;;;;;4.72;96.38672;929.206;;;;
2021/02/03 04:53:34;;;;;;;2.7;1.4;;;;;;;4.69;97.29297;929.1945;;;;
2021/02/03 04:56:02;;;;;;;1.9;1.3;;;;;;;4.72;96.65625;929.0208;;;;
2021/02/03 04:58:27;;;;;;;4.7;1.3;;;;;;;4.66;96.46191;929.0552;;;;
2021/02/03 05:00:52;;;;;;;3.4;1.9;;;;;;;4.74;96.25684;929.0723;;;;
2021/02/03 05:03:20;;;;;;;7.1;2.7;;;;;;;4.75;96.12402;929.0283;;;;
2021/02/03 05:05:49;;;;;;;2.9;2.1;;;;;;;4.61;96.08008;928.9189;;;;
2021/02/03 05:08:15;;;;;;;2.3;1.6;;;;;;;4.42;96.74707;928.988;;;;
2021/02/03 05:10:48;;;;;;;1.5;1;;;;;;;4.31;97.70117;929.0291;;;;
2021/02/03 05:13:13;;;;;;;1.3;1;;;;;;;4.24;98.21387;929.0278;;;;
2021/02/03 05:15:51;;;;;;;1.6;1.1;;;;;;;4.14;97.88672;929.0329;;;;
2021/02/03 05:19:36;;;;;;;3.1;2.4;;;;;;;3.95;99.38379;929.1984;;;;
2021/02/03 05:22:10;;;;;;;6.7;4.5;;;;;;;3.94;100;929.0541;;;;
2021/02/03 05:24:36;;;;;;;5.9;4.1;;;;;;;4.01;100;929.0604;;;;
2021/02/03 05:27:09;;;;;;;29.5;12.8;;;;;;;3.97;100;928.9633;;;;
2021/02/03 05:31:42;;;;;;;16;7.7;;;;;;;4.08;100;928.8923;;;;
2021/02/03 05:34:08;;;;;;;5.4;2.6;;;;;;;4.19;99.80078;928.8408;;;;
2021/02/03 05:36:33;;;;;;;25.9;15.9;;;;;;;4.2;99.07129;928.9543;;;;
2021/02/03 05:38:58;;;;;;;5.3;3.2;;;;;;;4.2;98.88965;929.0087;;;;
2021/02/03 05:41:26;;;;;;;2.2;1.3;;;;;;;4.22;98.83887;929.0385;;;;
2021/02/03 05:43:51;;;;;;;1.6;1.2;;;;;;;4.26;98.5127;928.9928;;;;
2021/02/03 05:46:17;;;;;;;0.8;0.8;;;;;;;4.3;98.02539;929.0069;;;;
2021/02/03 05:49:51;;;;;;;0.9;0.8;;;;;;;4.32;97.45605;929.1387;;;;
2021/02/03 05:52:20;;;;;;;4.2;1;;;;;;;4.29;97.16797;929.1675;;;;
2021/02/03 05:54:45;;;;;;;2.1;1.1;;;;;;;4.28;97.28809;929.1719;;;;
2021/02/03 05:57:10;;;;;;;2.7;0.9;;;;;;;4.36;96.96875;929.1378;;;;
2021/02/03 05:59:38;;;;;;;0.7;0.5;;;;;;;4.37;96.95996;929.0939;;;;
2021/02/03 06:02:04;;;;;;;3.2;1;;;;;;;4.32;97.36523;929.1403;;;;
2021/02/03 06:04:29;;;;;;;2.7;1.9;;;;;;;4.35;97.30469;929.0881;;;;
2021/02/03 06:06:55;;;;;;;8;3.7;;;;;;;4.43;96.70605;929.1529;;;;
2021/02/03 06:09:22;;;;;;;7.8;3.9;;;;;;;4.41;96.24902;929.1753;;;;
2021/02/03 06:11:47;;;;;;;5.4;3.7;;;;;;;4.37;96.18262;929.0466;;;;
2021/02/03 06:14:13;;;;;;;3.6;1.8;;;;;;;4.45;95.93066;929.1247;;;;
2021/02/03 06:16:44;;;;;;;1.1;0.8;;;;;;;4.33;96.12793;929.0931;;;;
2021/02/03 06:19:10;;;;;;;2.4;1.6;;;;;;;4.33;96.92871;929.0617;;;;
2021/02/03 06:21:39;;;;;;;4.1;2.1;;;;;;;4.29;96.85352;929.0413;;;;
2021/02/03 06:24:21;;;;;;;2.6;1.6;;;;;;;4.26;97.14844;929.0636;;;;
2021/02/03 06:26:53;;;;;;;0.6;0.5;;;;;;;4.23;98.52832;929.0947;;;;
2021/02/03 06:29:27;;;;;;;1.7;0.6;;;;;;;4.27;98.48926;929.063;;;;
2021/02/03 06:31:54;;;;;;;2;0.8;;;;;;;4.32;98.46875;929.1103;;;;
2021/02/03 06:34:20;;;;;;;1.3;0.8;;;;;;;4.24;98.61816;929.1375;;;;
2021/02/03 06:36:55;;;;;;;2.2;1;;;;;;;4.21;99.25391;929.0471;;;;
2021/02/03 06:39:20;;;;;;;1.4;1.2;;;;;;;4.24;99.0459;929.0419;;;;
2021/02/03 06:41:49;;;;;;;2.9;1.4;;;;;;;4.27;98.09766;929.1285;;;;
2021/02/03 06:44:14;;;;;;;7.7;1.7;;;;;;;4.42;98.54785;929.044;;;;
2021/02/03 06:46:47;;;;;;;2.5;1.3;;;;;;;4.52;98.01855;929.0055;;;;
2021/02/03 06:49:13;;;;;;;1.3;1.2;;;;;;;4.4;97.61816;929.055;;;;
2021/02/03 06:51:38;;;;;;;3.4;1.7;;;;;;;4.44;97.5293;929.0332;;;;
2021/02/03 06:54:05;;;;;;;8.1;2.3;;;;;;;4.38;97.18848;929.0083;;;;
2021/02/03 06:56:33;;;;;;;1.4;0.9;;;;;;;4.38;97.72852;929.0367;;;;
2021/02/03 06:58:59;;;;;;;1.7;1;;;;;;;4.5;97.18164;929.0043;;;;
2021/02/03 07:01:27;;;;;;;1.5;1.1;;;;;;;4.56;96.49609;929.0005;;;;
2021/02/03 07:03:52;;;;;;;4.5;1.3;;;;;;;4.66;96.11328;928.8858;;;;
2021/02/03 07:06:18;;;;;;;1;0.8;;;;;;;4.66;95.56348;928.7991;;;;
2021/02/03 07:08:47;;;;;;;1.1;1;;;;;;;4.69;95.13965;928.7625;;;;
2021/02/03 07:11:18;;;;;;;3.8;2.1;;;;;;;4.54;95.33203;928.8323;;;;
2021/02/03 07:13:54;;;;;;;1.9;1.3;;;;;;;4.39;96.55859;928.8358;;;;
2021/02/03 07:16:32;;;;;;;3.1;2.2;;;;;;;4.39;96.83105;928.7712;;;;
2021/02/03 07:18:57;;;;;;;2.2;1.6;;;;;;;4.28;97.26758;928.7466;;;;
2021/02/03 07:21:27;;;;;;;1.3;0.9;;;;;;;4.4;97.62988;928.7366;;;;
2021/02/03 07:24:02;;;;;;;2.1;1.3;;;;;;;4.37;97.18652;928.7119;;;;
2021/02/03 07:26:27;;;;;;;2.3;1.6;;;;;;;4.46;96.98047;928.5078;;;;
2021/02/03 07:28:52;;;;;;;4.6;2.8;;;;;;;4.46;96.6084;928.5779;;;;
2021/02/03 07:31:19;;;;;;;2.8;1.8;;;;;;;4.43;96.84961;928.5563;;;;
2021/02/03 07:33:51;;;;;;;3.8;1.9;;;;;;;4.45;96.76367;928.5944;;;;
2021/02/03 07:36:16;;;;;;;8.6;5.4;;;;;;;4.46;96.77734;928.6031;;;;
2021/02/03 07:38:41;;;;;;;7;4.5;;;;;;;4.53;96.7041;928.5034;;;;
2021/02/03 07:41:08;;;;;;;3.3;2.1;;;;;;;4.67;96.6123;928.4144;;;;
2021/02/03 07:43:35;;;;;;;3.4;1.9;;;;;;;4.79;96.29883;928.2996;;;;
2021/02/03 07:46:01;;;;;;;3.8;2.3;;;;;;;4.95;95.88672;928.2745;;;;
2021/02/03 07:48:27;;;;;;;53.6;21.4;;;;;;;5.03;95.36426;928.1948;;;;
2021/02/03 07:50:57;;;;;;;23.5;8.9;;;;;;;5.03;95.24023;928.1111;;;;
2021/02/03 07:53:22;;;;;;;3.4;1.8;;;;;;;5.14;95.0498;928.0762;;;;
2021/02/03 07:55:47;;;;;;;4.2;2.2;;;;;;;5.1;94.625;928.1428;;;;
2021/02/03 07:58:17;;;;;;;7.4;4;;;;;;;5.03;94.34961;928.1559;;;;
2021/02/03 08:00:41;;;;;;;3.3;2.1;;;;;;;4.91;95.23438;928.065;;;;
2021/02/03 08:03:09;;;;;;;5.1;2.7;;;;;;;5.02;95.2041;927.9603;;;;
2021/02/03 08:05:38;;;;;;;2.4;1.8;;;;;;;5.04;95.01465;927.9495;;;;
2021/02/03 08:08:09;;;;;;;2.8;1.8;;;;;;;5.14;94.89258;927.8459;;;;
2021/02/03 08:10:38;;;;;;;4.9;2.5;;;;;;;5.4;94.51074;927.7427;;;;
2021/02/03 08:13:10;;;;;;;16.4;8.7;;;;;;;5.54;93.33301;927.7556;;;;
2021/02/03 08:15:49;;;;;;;13.8;7.5;;;;;;;5.49;93.61426;927.546;;;;
2021/02/03 08:18:15;;;;;;;8.5;4.6;;;;;;;5.55;93.69629;927.4992;;;;
2021/02/03 08:20:49;;;;;;;3.4;2.3;;;;;;;5.72;93.32715;927.438;;;;
2021/02/03 08:23:19;;;;;;;3.1;2.1;;;;;;;6.42;91.7373;927.6035;;;;
2021/02/03 08:26:14;;;;;;;3.1;2.1;;;;;;;7.53;86.58984;927.4922;;;;
2021/02/03 08:28:39;;;;;;;1.9;1.1;;;;;;;8.05;83.66406;927.204;;;;
2021/02/03 08:31:12;;;;;;;1.3;1.2;;;;;;;9.11;79.56836;927.303;;;;
2021/02/03 08:33:38;;;;;;;2.6;1.4;;;;;;;10.33;73.27734;927.3113;;;;
2021/02/03 08:36:05;;;;;;;0.7;0.7;;;;;;;10.13;71.81738;927.1929;;;;
2021/02/03 08:38:34;;;;;;;3.3;1;;;;;;;9.2;74.37305;927.2161;;;;
2021/02/03 08:41:04;;;;;;;1.3;0.8;;;;;;;8.58;77.67578;927.2493;;;;
2021/02/03 08:43:30;;;;;;;1.6;0.9;;;;;;;8.52;78.65332;927.0692;;;;
2021/02/03 08:45:59;;;;;;;2.1;1;;;;;;;8.48;79.54199;927.0606;;;;
2021/02/03 08:48:35;;;;;;;1.2;1.1;;;;;;;8.2;80.88867;927.0756;;;;
2021/02/03 08:51:00;;;;;;;0.9;0.8;;;;;;;8.13;82.18164;926.9719;;;;
2021/02/03 08:53:27;;;;;;;0.5;0.5;;;;;;;7.91;81.50391;927.0602;;;;
2021/02/03 08:55:52;;;;;;;2.3;1.5;;;;;;;8.06;82.29199;927.0083;;;;
2021/02/03 08:58:18;;;;;;;3.4;0.4;;;;;;;8.6;80.28223;926.9763;;;;
2021/02/03 09:00:47;;;;;;;0.9;0.7;;;;;;;8.86;77.03223;926.9938;;;;
2021/02/03 09:03:12;;;;;;;2;0.9;;;;;;;8.83;79.07324;927.0416;;;;
2021/02/03 09:05:41;;;;;;;2.1;1.5;;;;;;;8.78;79.69043;926.9009;;;;
2021/02/03 09:08:07;;;;;;;4.6;2.5;;;;;;;8.4;81.83398;927.0215;;;;
2021/02/03 09:10:39;;;;;;;2.2;1.7;;;;;;;7.94;83.8584;926.9984;;;;
2021/02/03 09:13:03;;;;;;;2.6;2.2;;;;;;;7.77;85.2207;927.0526;;;;
2021/02/03 09:15:44;;;;;;;1.7;1.4;;;;;;;7.8;85.66992;927.0725;;;;
2021/02/03 09:18:14;;;;;;;3.8;2.1;;;;;;;7.87;85.13672;926.9563;;;;
2021/02/03 09:20:45;;;;;;;2.1;1.5;;;;;;;7.91;83.98926;926.8684;;;;
2021/02/03 09:23:12;;;;;;;2.9;1.6;;;;;;;7.88;84.0293;926.7653;;;;
2021/02/03 09:25:43;;;;;;;3.1;1.2;;;;;;;7.94;84.95801;926.7131;;;;
2021/02/03 09:28:07;;;;;;;2.2;1.4;;;;;;;8.06;84.8916;926.5961;;;;
2021/02/03 09:30:32;;;;;;;1.3;1.2;;;;;;;8.01;85.20117;926.7277;;;;
2021/02/03 09:32:59;;;;;;;0.8;0.8;;;;;;;8.2;84.21484;926.7847;;;;
2021/02/03 09:35:24;;;;;;;1.5;0.7;;;;;;;;;;;;;
2021/02/03 09:37:49;;;;;;;3;0.9;;;;;;;;;;;;;
2021/02/03 09:40:15;;;;;;;1.2;0.5;;;;;;;;;;;;;
2021/02/03 09:42:40;;;;;;;0.3;0.3;;;;;;;;;;;;;
2021/02/03 09:45:09;;;;;;;0.5;0.5;;;;;;;;;;;;;
2021/02/03 09:47:34;;;;;;;1.1;0.7;;;;;;;;;;;;;
2021/02/03 09:49:58;;;;;;;1.3;0.8;;;;;;;;;;;;;
2021/02/03 09:52:24;;;;;;;0.3;0.3;;;;;;;;;;;;;
2021/02/03 09:54:50;;;;;;;0.6;0.6;;;;;;;;;;;;;
2021/02/03 09:57:15;;;;;;;0.8;0.5;;;;;;;;;;;;;
2021/02/03 09:59:40;;;;;;;0.9;0.6;;;;;;;;;;;;;
2021/02/03 10:02:05;;;;;;;0.2;0.2;;;;;;;;;;;;;
2021/02/03 10:04:30;;;;;;;1.4;0.2;;;;;;;;;;;;;
2021/02/03 10:06:57;;;;;;;0.1;0.1;;;;;;;;;;;;;
2021/02/03 10:09:22;;;;;;;1;0.4;;;;;;;;;;;;;
2021/02/03 10:11:47;;;;;;;0.7;0.4;;;;;;;;;;;;;
2021/02/03 10:14:12;;;;;;;1.3;1;;;;;;;;;;;;;
2021/02/03 10:16:39;;;;;;;1.8;1.4;;;;;;;;;;;;;
2021/02/03 10:19:05;;;;;;;3.9;1.6;;;;;;;;;;;;;
2021/02/03 10:21:30;;;;;;;2;1.4;;;;;;;;;;;;;
2021/02/03 10:23:57;;;;;;;3.1;1.9;;;;;;;;;;;;;
2021/02/03 10:26:22;;;;;;;1.1;0.9;;;;;;;;;;;;;
2021/02/03 10:28:49;;;;;;;1.5;0.8;;;;;;;;;;;;;
2021/02/03 10:31:16;;;;;;;0.8;0.5;;;;;;;;;;;;;
2021/02/03 10:33:39;;;;;;;2.7;1.4;;;;;;;;;;;;;
2021/02/03 10:36:04;;;;;;;1.5;1.1;;;;;;;;;;;;;
2021/02/03 10:38:29;;;;;;;3.3;1.7;;;;;;;;;;;;;
2021/02/03 10:40:55;;;;;;;1.7;1;;;;;;;;;;;;;
2021/02/03 10:43:24;;;;;;;2.4;1;;;;;;;;;;;;;
2021/02/03 10:45:49;;;;;;;1.3;1.2;;;;;;;;;;;;;
2021/02/03 10:48:14;;;;;;;1.4;1.2;;;;;;;;;;;;;
2021/02/03 10:50:39;;;;;;;0.8;0.8;;;;;;;;;;;;;
2021/02/03 10:53:04;;;;;;;1.2;0.6;;;;;;;;;;;;;
2021/02/03 10:55:29;;;;;;;4.2;1.3;;;;;;;;;;;;;
2021/02/03 10:57:56;;;;;;;0.8;0.6;;;;;;;;;;;;;
2021/02/03 11:00:21;;;;;;;2.4;1.1;;;;;;;;;;;;;
2021/02/03 11:02:46;;;;;;;1.8;1.2;;;;;;;;;;;;;
2021/02/03 11:05:11;;;;;;;1.6;1.1;;;;;;;;;;;;;
2021/02/03 11:07:37;;;;;;;1.7;1;;;;;;;;;;;;;
2021/02/03 11:10:01;;;;;;;1.5;1.1;;;;;;;;;;;;;
2021/02/03 11:12:29;;;;;;;2.5;1.2;;;;;;;;;;;;;
2021/02/03 11:14:54;;;;;;;0.9;0.8;;;;;;;;;;;;;
2021/02/03 11:17:20;;;;;;;4.8;1;;;;;;;;;;;;;
2021/02/03 11:19:47;;;;;;;1.1;0.9;;;;;;;;;;;;;
2021/02/03 11:22:12;;;;;;;1.9;0.7;;;;;;;;;;;;;
2021/02/03 11:24:40;;;;;;;1.2;0.9;;;;;;;;;;;;;
2021/02/03 11:27:05;;;;;;;1.5;1;;;;;;;;;;;;;
2021/02/03 11:29:31;;;;;;;0.8;0.7;;;;;;;;;;;;;
2021/02/03 11:31:59;;;;;;;1.1;0.5;;;;;;;;;;;;;
2021/02/03 11:34:24;;;;;;;2.2;0.7;;;;;;;;;;;;;
2021/02/03 11:36:49;;;;;;;0.5;0.5;;;;;;;;;;;;;
2021/02/03 11:39:14;;;;;;;0.7;0.5;;;;;;;;;;;;;
2021/02/03 11:41:39;;;;;;;1.2;0.6;;;;;;;;;;;;;
2021/02/03 11:44:04;;;;;;;1.3;0.5;;;;;;;;;;;;;
2021/02/03 11:46:30;;;;;;;0.3;0.3;;;;;;;;;;;;;
2021/02/03 11:48:55;;;;;;;0.6;0.5;;;;;;;;;;;;;
2021/02/03 11:51:20;;;;;;;7.6;0.5;;;;;;;;;;;;;
2021/02/03 11:53:45;;;;;;;0.8;0.3;;;;;;;;;;;;;
2021/02/03 11:56:12;;;;;;;0.5;0.4;;;;;;;;;;;;;
2021/02/03 11:58:37;;;;;;;0.4;0.3;;;;;;;;;;;;;
2021/02/03 12:01:04;;;;;;;1.7;0.5;;;;;;;;;;;;;
2021/02/03 12:03:30;;;;;;;0.2;0.2;;;;;;;;;;;;;
2021/02/03 12:05:55;;;;;;;0.6;0.2;;;;;;;;;;;;;
2021/02/03 12:08:20;;;;;;;0.1;0.1;;;;;;;;;;;;;
2021/02/03 12:10:52;;;;;;;0.3;0.2;;;;;;;;;;;;;
2021/02/03 12:13:18;;;;;;;0.5;0.3;;;;;;;;;;;;;
2021/02/03 12:15:45;;;;;;;0.3;0.1;;;;;;;;;;;;;
2021/02/03 12:18:10;;;;;;;0.4;0.2;;;;;;;;;;;;;
2021/02/03 12:20:45;;;;;;;0.2;0.2;;;;;;;;;;;;;
2021/02/03 12:23:11;;;;;;;0.8;0.3;;;;;;;;;;;;;
2021/02/03 12:25:46;;;;;;;0.1;0.1;;;;;;;;;;;;;
2021/02/03 12:28:11;;;;;;;0.4;0.3;;;;;;;;;;;;;
2021/02/03 12:30:41;;;;;;;0.4;0.3;;;;;;;;;;;;;
2021/02/03 12:33:06;;;;;;;0.2;0.2;;;;;;;;;;;;;
2021/02/03 12:35:31;;;;;;;0.4;0.2;;;;;;;;;;;;;
2021/02/03 12:37:56;;;;;;;1;0.5;;;;;;;;;;;;;
2021/02/03 12:40:22;;;;;;;0.3;0.3;;;;;;;;;;;;;
2021/02/03 12:42:51;;;;;;;0.7;0.3;;;;;;;;;;;;;
2021/02/03 12:45:18;;;;;;;0.4;0.2;;;;;;;;;;;;;
2021/02/03 12:47:48;;;;;;;0.7;0.3;;;;;;;;;;;;;
2021/02/03 12:50:23;;;;;;;0.4;0.3;;;;;;;;;;;;;
2021/02/03 12:52:52;;;;;;;0.8;0.4;;;;;;;;;;;;;
2021/02/03 12:55:25;;;;;;;2.2;0.5;;;;;;;;;;;;;
2021/02/03 12:57:53;;;;;;;0.4;0.4;;;;;;;;;;;;;
2021/02/03 13:00:23;;;;;;;1.6;0.7;;;;;;;;;;;;;
2021/02/03 13:02:49;;;;;;;0.8;0.4;;;;;;;;;;;;;
2021/02/03 13:05:18;;;;;;;0.9;0.5;;;;;;;;;;;;;
2021/02/03 13:07:49;;;;;;;0.1;0.1;;;;;;;;;;;;;
2021/02/03 13:10:16;;;;;;;1.8;0.4;;;;;;;;;;;;;
2021/02/03 13:12:44;;;;;;;0.5;0.3;;;;;;;;;;;;;
2021/02/03 13:15:09;;;;;;;0.6;0.3;;;;;;;;;;;;;
2021/02/03 13:17:40;;;;;;;0.2;0.2;;;;;;;;;;;;;
2021/02/03 13:20:11;;;;;;;0.8;0.3;;;;;;;;;;;;;
2021/02/03 13:22:38;;;;;;;0.1;0.1;;;;;;;;;;;;;
2021/02/03 13:25:04;;;;;;;0.6;0.3;;;;;;;;;;;;;
2021/02/03 13:27:30;;;;;;;0.3;0.2;;;;;;;;;;;;;
2021/02/03 13:29:54;;;;;;;0.3;0.2;;;;;;;;;;;;;
2021/02/03 13:32:23;;;;;;;0.2;0.2;;;;;;;;;;;;;
2021/02/03 13:34:51;;;;;;;0.1;0.1;;;;;;;;;;;;;
2021/02/03 13:37:16;;;;;;;0.2;0.1;;;;;;;;;;;;;
2021/02/03 13:39:41;;;;;;;0.6;0.4;;;;;;;;;;;;;
2021/02/03 13:42:09;;;;;;;0.3;0.3;;;;;;;;;;;;;
2021/02/03 13:44:41;;;;;;;0.8;0.2;;;;;;;;;;;;;
2021/02/03 13:47:09;;;;;;;0.4;0.2;;;;;;;;;;;;;
2021/02/03 13:49:34;;;;;;;0.5;0.3;;;;;;;;;;;;;
2021/02/03 13:51:59;;;;;;;0.6;0.6;;;;;;;;;;;;;
2021/02/03 13:54:38;;;;;;;0.4;0.4;;;;;;;;;;;;;
2021/02/03 13:57:03;;;;;;;0.9;0.5;;;;;;;;;;;;;
2021/02/03 13:59:29;;;;;;;0.9;0.4;;;;;;;;;;;;;
2021/02/03 14:01:54;;;;;;;0.8;0.4;;;;;;;;;;;;;
2021/02/03 14:04:19;;;;;;;3.6;0.7;;;;;;;;;;;;;
2021/02/03 14:06:44;;;;;;;0.5;0.5;;;;;;;;;;;;;
2021/02/03 14:09:09;;;;;;;0.3;0.3;;;;;;;;;;;;;
2021/02/03 14:11:35;;;;;;;1.7;0.7;;;;;;;;;;;;;
2021/02/03 14:14:00;;;;;;;1.8;1.5;;;;;;;;;;;;;
2021/02/03 14:16:34;;;;;;;1;0.7;;;;;;;;;;;;;
2021/02/03 14:19:08;;;;;;;3.6;2;;;;;;;;;;;;;
2021/02/03 14:21:33;;;;;;;2.8;1.6;;;;;;;;;;;;;
2021/02/03 14:23:59;;;;;;;5.8;2.5;;;;;;;;;;;;;
2021/02/03 14:26:29;;;;;;;2.4;1.3;;;;;;;;;;;;;
2021/02/03 14:28:54;;;;;;;25.1;9.7;;;;;;;;;;;;;
2021/02/03 14:31:27;;;;;;;17.1;8.6;;;;;;;;;;;;;
2021/02/03 14:33:55;;;;;;;11.1;4.5;;;;;;;;;;;;;
2021/02/03 14:36:19;;;;;;;5.3;3.3;;;;;;;;;;;;;
2021/02/03 14:38:47;;;;;;;2.3;1.9;;;;;;;;;;;;;
2021/02/03 14:41:11;;;;;;;2;1.5;;;;;;;;;;;;;
2021/02/03 14:43:43;;;;;;;4.9;1.6;;;;;;;;;;;;;
2021/02/03 14:46:08;;;;;;;2.8;1.8;;;;;;;;;;;;;
2021/02/03 14:48:33;;;;;;;2.6;1.9;;;;;;;;;;;;;
2021/02/03 14:50:58;;;;;;;4.9;2.3;;;;;;;;;;;;;
2021/02/03 14:53:23;;;;;;;15.7;3.4;;;;;;;;;;;;;
2021/02/03 14:55:49;;;;;;;5.5;1.9;;;;;;;;;;;;;
2021/02/03 14:58:16;;;;;;;2.4;1.8;;;;;;;;;;;;;
2021/02/03 15:00:45;;;;;;;3.6;2.4;;;;;;;;;;;;;
2021/02/03 15:03:11;;;;;;;2.7;2;;;;;;;;;;;;;
2021/02/03 15:05:37;;;;;;;3.1;2.1;;;;;;;;;;;;;
2021/02/03 15:08:02;;;;;;;5.5;2.4;;;;;;;;;;;;;
2021/02/03 15:10:27;;;;;;;6.5;3.1;;;;;;;;;;;;;
2021/02/03 15:12:53;;;;;;;4.4;2.1;;;;;;;;;;;;;
2021/02/03 15:15:18;;;;;;;3.2;1.8;;;;;;;;;;;;;
2021/02/03 15:17:44;;;;;;;2;1.5;;;;;;;;;;;;;
2021/02/03 15:20:13;;;;;;;1.5;1.4;;;;;;;;;;;;;
2021/02/03 15:22:38;;;;;;;2.8;1.9;;;;;;;;;;;;;
2021/02/03 15:25:03;;;;;;;4;1.7;;;;;;;;;;;;;
2021/02/03 15:27:28;;;;;;;10.8;3.1;;;;;;;;;;;;;
2021/02/03 15:29:54;;;;;;;12.6;4.7;;;;;;;;;;;;;
2021/02/03 15:32:18;;;;;;;4.8;2;;;;;;;;;;;;;
2021/02/03 15:34:44;;;;;;;7.6;3.2;;;;;;;;;;;;;
2021/02/03 15:37:09;;;;;;;4.1;2.6;;;;;;;;;;;;;
2021/02/03 15:39:40;;;;;;;4.1;2.5;;;;;;;;;;;;;
2021/02/03 15:42:10;;;;;;;2.1;1.5;;;;;;;;;;;;;
2021/02/03 15:44:35;;;;;;;1;0.9;;;;;;;;;;;;;
2021/02/03 15:47:00;;;;;;;1.4;1;;;;;;;;;;;;;
2021/02/03 15:49:25;;;;;;;2.1;1.2;;;;;;;;;;;;;
2021/02/03 15:51:54;;;;;;;5.2;1.8;;;;;;;;;;;;;
2021/02/03 15:54:19;;;;;;;4.4;1.8;;;;;;;;;;;;;
2021/02/03 15:56:45;;;;;;;5.2;1.8;;;;;;;;;;;;;
2021/02/03 15:59:10;;;;;;;2.6;2;;;;;;;;;;;;;
2021/02/03 16:01:36;;;;;;;2.5;1.7;;;;;;;;;;;;;
2021/02/03 16:04:01;;;;;;;2;1.4;;;;;;;;;;;;;
2021/02/03 16:06:26;;;;;;;1.5;1.2;;;;;;;;;;;;;
2021/02/03 16:08:53;;;;;;;3.4;1.9;;;;;;;;;;;;;
2021/02/03 16:11:18;;;;;;;2.5;1.7;;;;;;;;;;;;;
2021/02/03 16:13:43;;;;;;;2.4;1.3;;;;;;;;;;;;;
2021/02/03 16:16:11;;;;;;;1.9;1.6;;;;;;;;;;;;;
2021/02/03 16:18:36;;;;;;;2.8;1.6;;;;;;;;;;;;;
2021/02/03 16:21:01;;;;;;;1.8;1.2;;;;;;;;;;;;;
2021/02/03 16:23:26;;;;;;;2.3;1.3;;;;;;;;;;;;;
2021/02/03 16:25:51;;;;;;;1.6;1.1;;;;;;;;;;;;;
2021/02/03 16:28:17;;;;;;;2.8;1.3;;;;;;;;;;;;;
2021/02/03 16:30:42;;;;;;;1.8;1.6;;;;;;;;;;;;;
2021/02/03 16:33:08;;;;;;;2.2;1.4;;;;;;;;;;;;;
2021/02/03 16:35:32;;;;;;;1.9;1.1;;;;;;;;;;;;;
2021/02/03 16:37:57;;;;;;;3.8;1.7;;;;;;;;;;;;;
2021/02/03 16:40:22;;;;;;;7.6;1.7;;;;;;;;;;;;;
2021/02/03 16:42:48;;;;;;;0.7;0.7;;;;;;;;;;;;;
2021/02/03 16:45:13;;;;;;;5.8;1.7;;;;;;;;;;;;;
2021/02/03 16:47:38;;;;;;;3.9;1.8;;;;;;;;;;;;;
2021/02/03 16:50:10;;;;;;;5.7;2.5;;;;;;;;;;;;;
2021/02/03 16:52:35;;;;;;;0.8;0.7;;;;;;;;;;;;;
2021/02/03 16:55:00;;;;;;;2.1;1;;;;;;;;;;;;;
2021/02/03 16:57:26;;;;;;;2.7;0.9;;;;;;;;;;;;;
2021/02/03 16:59:53;;;;;;;1.1;1;;;;;;;;;;;;;
2021/02/03 17:02:16;;;;;;;4.1;1.5;;;;;;;;;;;;;
2021/02/03 17:04:41;;;;;;;11.9;3.2;;;;;;;;;;;;;
2021/02/03 17:07:16;;;;;;;4.4;2.5;;;;;;;;;;;;;
2021/02/03 17:09:32;;;;;;;4.4;2;;;;;;;;;;;;;
2021/02/03 17:11:57;;;;;;;3.7;2.2;;;;;;;;;;;;;
2021/02/03 17:14:23;;;;;;;1.5;1.3;;;;;;;;;;;;;
2021/02/03 17:16:51;;;;;;;2.1;1.2;;;;;;;;;;;;;
2021/02/03 17:19:17;;;;;;;3.6;1.9;;;;;;;;;;;;;
2021/02/03 17:21:43;;;;;;;2.3;1.5;;;;;;;;;;;;;
2021/02/03 17:24:07;;;;;;;2;1.4;;;;;;;;;;;;;
2021/02/03 17:26:32;;;;;;;1.4;1;;;;;;;;;;;;;
2021/02/03 17:29:10;;;;;;;2.8;1.7;;;;;;;;;;;;;
2021/02/03 17:31:29;;;;;;;5;2.6;;;;;;;;;;;;;
2021/02/03 17:33:55;;;;;;;5.2;3.6;;;;;;;;;;;;;
2021/02/03 17:36:24;;;;;;;7;3.4;;;;;;;;;;;;;
2021/02/03 17:38:49;;;;;;;3.9;1.9;;;;;;;;;;;;;
2021/02/03 17:41:14;;;;;;;4.4;3;;;;;;;;;;;;;
2021/02/03 17:43:40;;;;;;;5.1;2.6;;;;;;;;;;;;;
2021/02/03 17:46:04;;;;;;;4.4;2.1;;;;;;;;;;;;;
2021/02/03 17:48:29;;;;;;;4.2;2.2;;;;;;;;;;;;;
2021/02/03 17:50:57;;;;;;;3.7;2.2;;;;;;;;;;;;;
2021/02/03 17:53:23;;;;;;;2.6;2.2;;;;;;;;;;;;;
2021/02/03 17:55:48;;;;;;;3.2;2.1;;;;;;;;;;;;;
2021/02/03 17:58:13;;;;;;;4;2;;;;;;;;;;;;;
2021/02/03 18:00:39;;;;;;;2.4;1.3;;;;;;;;;;;;;
2021/02/03 18:03:04;;;;;;;3.7;2.8;;;;;;;;;;;;;
2021/02/03 18:05:31;;;;;;;5.8;3;;;;;;;;;;;;;
2021/02/03 18:07:56;;;;;;;7;4;;;;;;;;;;;;;
2021/02/03 18:10:22;;;;;;;5.6;3.7;;;;;;;;;;;;;
2021/02/03 18:12:47;;;;;;;5.5;2.9;;;;;;;;;;;;;
2021/02/03 18:15:13;;;;;;;5.4;2.2;;;;;;;;;;;;;
2021/02/03 18:17:39;;;;;;;4;2.1;;;;;;;;;;;;;
2021/02/03 18:20:04;;;;;;;5.2;2.8;;;;;;;;;;;;;
2021/02/03 18:22:29;;;;;;;3.6;2;;;;;;;;;;;;;
2021/02/03 18:24:56;;;;;;;2.4;1.4;;;;;;;;;;;;;
2021/02/03 18:27:22;;;;;;;3.2;2.2;;;;;;;;;;;;;
2021/02/03 18:29:47;;;;;;;3.8;2.8;;;;;;;;;;;;;
2021/02/03 18:32:14;;;;;;;5.6;2.8;;;;;;;;;;;;;
2021/02/03 18:34:40;;;;;;;2.3;2;;;;;;;;;;;;;
2021/02/03 18:37:05;;;;;;;2.8;1.4;;;;;;;;;;;;;
2021/02/03 18:39:30;;;;;;;3.1;2.2;;;;;;;;;;;;;